createdAt,value
2022-08-28T00:00:42.458Z,71.22
2022-08-28T00:03:13.208Z,71.61
2022-08-28T00:05:42.456Z,71.90
2022-08-28T00:08:14.163Z,72.21
2022-08-28T00:10:42.889Z,72.00
2022-08-28T00:13:18.753Z,71.75
2022-08-28T00:15:50.529Z,71.97
2022-08-28T00:18:19.584Z,72.16
2022-08-28T00:20:48.555Z,72.26
2022-08-28T00:23:17.490Z,72.55
2022-08-28T00:25:45.659Z,72.65
2022-08-28T00:28:23.675Z,72.73
2022-08-28T00:30:56.162Z,72.89
2022-08-28T00:33:30.329Z,73.01
2022-08-28T00:35:59.136Z,72.87
2022-08-28T00:38:29.277Z,73.07
2022-08-28T00:41:03.671Z,73.25
2022-08-28T00:43:33.970Z,73.52
2022-08-28T00:46:04.608Z,73.65
2022-08-28T00:48:33.533Z,73.64
2022-08-28T00:51:22.591Z,73.89
2022-08-28T00:53:51.734Z,74.04
2022-08-28T00:56:20.385Z,74.03
2022-08-28T00:58:51.213Z,74.07
2022-08-28T01:01:19.734Z,73.97
2022-08-28T01:03:47.718Z,73.97
2022-08-28T01:06:20.360Z,74.25
2022-08-28T01:08:50.627Z,74.45
2022-08-28T01:11:19.778Z,74.48
2022-08-28T01:13:48.764Z,74.50
2022-08-28T01:16:19.622Z,74.62
2022-08-28T01:18:50.015Z,74.85
2022-08-28T01:21:39.891Z,74.89
2022-08-28T01:24:14.988Z,74.91
2022-08-28T01:26:43.874Z,75.05
2022-08-28T01:29:12.515Z,74.95
2022-08-28T01:31:41.217Z,75.04
2022-08-28T01:34:12.713Z,75.15
2022-08-28T01:36:42.341Z,75.13
2022-08-28T01:39:18.184Z,75.24
2022-08-28T01:41:48.264Z,75.28
2022-08-28T01:44:18.002Z,75.38
2022-08-28T01:46:46.776Z,75.39
2022-08-28T01:49:14.962Z,75.59
2022-08-28T01:51:42.922Z,75.54
2022-08-28T01:54:11.977Z,75.60
2022-08-28T01:56:43.093Z,76.00
2022-08-28T01:59:14.506Z,76.06
2022-08-28T02:01:43.678Z,76.19
2022-08-28T02:04:11.984Z,76.09
2022-08-28T02:06:40.016Z,75.96
2022-08-28T02:09:14.577Z,75.98
2022-08-28T02:11:46.597Z,76.10
2022-08-28T02:14:15.864Z,76.31
2022-08-28T02:16:43.922Z,76.41
2022-08-28T02:19:12.545Z,76.40
2022-08-28T02:21:41.091Z,76.60
2022-08-28T02:24:09.345Z,76.61
2022-08-28T02:26:37.504Z,76.70
2022-08-28T02:29:06.605Z,76.72
2022-08-28T02:31:34.817Z,76.82
2022-08-28T02:34:02.744Z,76.87
2022-08-28T02:36:34.176Z,77.13
2022-08-28T02:39:02.450Z,77.20
2022-08-28T02:41:31.455Z,77.47
2022-08-28T02:43:59.730Z,77.47
2022-08-28T02:46:27.784Z,77.48
2022-08-28T02:48:56.354Z,77.68
2022-08-28T02:51:24.638Z,77.67
2022-08-28T02:53:52.932Z,77.71
2022-08-28T02:56:20.770Z,77.84
2022-08-28T02:58:48.913Z,78.13
2022-08-28T03:01:16.967Z,78.02
2022-08-28T03:03:45.049Z,77.81
2022-08-28T03:06:13.613Z,77.85
2022-08-28T03:08:43.120Z,78.08
2022-08-28T03:11:12.394Z,78.26
2022-08-28T03:13:40.682Z,78.25
2022-08-28T03:16:08.710Z,78.35
2022-08-28T03:18:36.686Z,78.28
2022-08-28T03:21:04.968Z,78.28
2022-08-28T03:23:32.905Z,78.34
2022-08-28T03:26:05.272Z,78.44
2022-08-28T03:28:38.454Z,78.43
2022-08-28T03:31:09.007Z,78.45
2022-08-28T03:33:37.408Z,78.58
2022-08-28T03:36:13.212Z,78.75
2022-08-28T03:38:42.211Z,78.69
2022-08-28T03:41:15.649Z,78.74
2022-08-28T03:43:43.768Z,78.87
2022-08-28T03:46:18.465Z,78.93
2022-08-28T03:48:46.774Z,79.09
2022-08-28T03:51:18.008Z,79.19
2022-08-28T03:53:46.710Z,79.21
2022-08-28T03:56:22.611Z,79.43
2022-08-28T03:58:53.255Z,79.37
2022-08-28T04:01:22.127Z,79.51
2022-08-28T04:03:50.156Z,79.68
2022-08-28T04:06:20.085Z,79.59
2022-08-28T04:08:48.487Z,79.56
2022-08-28T04:11:16.319Z,79.74
2022-08-28T04:13:44.904Z,79.63
2022-08-28T04:16:17.226Z,79.66
2022-08-28T04:18:48.034Z,79.75
2022-08-28T04:21:16.542Z,79.67
2022-08-28T04:23:45.730Z,79.46
2022-08-28T04:26:20.198Z,79.32
2022-08-28T04:28:49.111Z,79.21
2022-08-28T04:31:19.954Z,79.17
2022-08-28T04:34:02.222Z,79.25
2022-08-28T04:36:30.390Z,79.44
2022-08-28T04:38:58.911Z,79.58
2022-08-28T04:41:27.794Z,79.42
2022-08-28T04:43:57.555Z,79.28
2022-08-28T04:46:25.750Z,79.25
2022-08-28T04:48:54.130Z,79.27
2022-08-28T04:51:22.649Z,79.21
2022-08-28T04:53:50.851Z,79.10
2022-08-28T04:56:18.677Z,78.89
2022-08-28T04:58:46.814Z,78.82
2022-08-28T05:01:19.296Z,78.66
2022-08-28T05:03:49.218Z,78.22
2022-08-28T05:06:17.110Z,78.04
2022-08-28T05:08:45.025Z,77.99
2022-08-28T05:11:33.383Z,77.82
2022-08-28T05:14:12.655Z,75.59
2022-08-28T05:16:46.531Z,73.03
2022-08-28T05:19:16.263Z,71.26
2022-08-28T05:21:44.590Z,67.69
2022-08-28T05:24:14.279Z,64.65
2022-08-28T05:26:42.594Z,61.92
2022-08-28T05:29:11.195Z,59.81
2022-08-28T05:31:41.590Z,59.05
2022-08-28T05:34:10.688Z,57.36
2022-08-28T05:36:41.336Z,55.51
2022-08-28T05:39:12.110Z,54.42
2022-08-28T05:41:42.472Z,53.44
2022-08-28T05:44:12.843Z,53.20
2022-08-28T05:46:43.977Z,52.17
2022-08-28T05:49:13.738Z,51.12
2022-08-28T05:51:43.058Z,49.47
2022-08-28T05:54:12.389Z,48.83
2022-08-28T05:56:41.076Z,47.81
2022-08-28T05:59:11.087Z,46.79
2022-08-28T06:01:47.696Z,46.90
2022-08-28T06:04:21.418Z,46.93
2022-08-28T06:06:50.095Z,46.76
2022-08-28T06:09:29.886Z,47.05
2022-08-28T06:12:01.843Z,46.36
2022-08-28T06:14:31.652Z,45.94
2022-08-28T06:17:01.871Z,46.32
2022-08-28T06:19:31.922Z,46.48
2022-08-28T06:22:07.435Z,46.40
2022-08-28T06:24:36.424Z,46.72
2022-08-28T06:27:05.066Z,46.98
2022-08-28T06:29:33.538Z,47.67
2022-08-28T06:32:04.571Z,49.01
2022-08-28T06:34:33.084Z,49.97
2022-08-28T06:37:01.172Z,50.65
2022-08-28T06:39:29.384Z,51.66
2022-08-28T06:41:57.633Z,52.01
2022-08-28T06:44:25.543Z,52.84
2022-08-28T06:46:54.861Z,53.92
2022-08-28T06:49:22.887Z,54.04
2022-08-28T06:51:50.868Z,53.68
2022-08-28T06:54:22.818Z,53.70
2022-08-28T06:56:52.808Z,53.95
2022-08-28T06:59:21.121Z,53.96
2022-08-28T07:01:49.477Z,53.83
2022-08-28T07:04:17.622Z,53.62
2022-08-28T07:06:46.969Z,52.99
2022-08-28T07:09:15.485Z,52.82
2022-08-28T07:11:46.860Z,52.27
2022-08-28T07:14:14.835Z,51.64
2022-08-28T07:16:44.469Z,51.16
2022-08-28T07:19:13.661Z,51.60
2022-08-28T07:21:45.088Z,51.07
2022-08-28T07:24:14.894Z,51.24
2022-08-28T07:26:44.638Z,50.84
2022-08-28T07:29:13.192Z,49.96
2022-08-28T07:31:44.134Z,50.18
2022-08-28T07:34:13.710Z,48.89
2022-08-28T07:36:43.318Z,48.29
2022-08-28T07:39:14.998Z,47.50
2022-08-28T07:41:43.340Z,46.75
2022-08-28T07:44:32.479Z,46.55
2022-08-28T07:47:04.319Z,46.89
2022-08-28T07:49:34.460Z,46.49
2022-08-28T07:52:03.058Z,45.89
2022-08-28T07:54:31.105Z,44.84
2022-08-28T07:56:59.241Z,44.49
2022-08-28T07:59:28.792Z,44.44
2022-08-28T08:02:07.178Z,44.04
2022-08-28T08:04:35.508Z,43.25
2022-08-28T08:07:05.154Z,42.26
2022-08-28T08:09:39.292Z,41.90
2022-08-28T08:12:10.532Z,40.53
2022-08-28T08:14:39.331Z,39.66
2022-08-28T08:17:09.275Z,39.70
2022-08-28T08:19:37.354Z,38.78
2022-08-28T08:22:06.393Z,38.99
2022-08-28T08:24:34.312Z,39.16
2022-08-28T08:27:03.385Z,39.77
2022-08-28T08:29:36.725Z,38.85
2022-08-28T08:32:08.628Z,37.92
2022-08-28T08:34:40.809Z,38.25
2022-08-28T08:37:09.336Z,37.42
2022-08-28T08:39:38.145Z,36.84
2022-08-28T08:42:24.755Z,37.29
2022-08-28T08:44:55.479Z,36.72
2022-08-28T08:47:26.612Z,36.28
2022-08-28T08:50:02.718Z,36.27
2022-08-28T08:52:40.702Z,35.29
2022-08-28T08:55:35.265Z,34.68
2022-08-28T08:58:24.744Z,34.66
2022-08-28T09:01:04.196Z,33.59
2022-08-28T09:03:38.758Z,32.81
2022-08-28T09:06:37.412Z,32.76
2022-08-28T09:09:16.235Z,33.19
2022-08-28T09:11:57.258Z,33.69
2022-08-28T09:14:43.931Z,33.37
2022-08-28T09:17:16.793Z,33.38
2022-08-28T09:19:44.819Z,33.28
2022-08-28T09:22:12.960Z,33.02
2022-08-28T09:24:41.794Z,32.71
2022-08-28T09:27:26.190Z,32.48
2022-08-28T09:30:07.822Z,32.78
2022-08-28T09:32:42.303Z,33.26
2022-08-28T09:35:25.432Z,33.59
2022-08-28T09:37:53.789Z,33.12
2022-08-28T09:40:47.668Z,33.38
2022-08-28T09:43:28.357Z,33.05
2022-08-28T09:46:05.168Z,32.17
2022-08-28T09:48:37.740Z,32.24
2022-08-28T09:51:27.171Z,32.44
2022-08-28T09:53:59.878Z,32.18
2022-08-28T09:56:33.553Z,31.80
2022-08-28T09:59:15.333Z,30.84
2022-08-28T10:02:15.710Z,31.29
2022-08-28T10:05:07.719Z,31.52
2022-08-28T10:07:48.227Z,30.75
2022-08-28T10:10:20.629Z,31.56
2022-08-28T10:13:20.617Z,32.18
2022-08-28T10:16:14.307Z,30.71
2022-08-28T10:18:56.585Z,30.76
2022-08-28T10:21:37.989Z,31.33
2022-08-28T10:24:05.913Z,31.36
2022-08-28T10:26:52.714Z,31.87
2022-08-28T10:29:55.605Z,30.91
2022-08-28T10:32:42.354Z,31.07
2022-08-28T10:35:20.227Z,30.46
2022-08-28T10:37:57.721Z,30.58
2022-08-28T10:40:31.063Z,30.57
2022-08-28T10:43:24.316Z,30.43
2022-08-28T10:45:53.087Z,30.21
2022-08-28T10:48:39.409Z,29.65
2022-08-28T10:51:40.526Z,29.02
2022-08-28T10:54:17.598Z,28.65
2022-08-28T10:57:10.494Z,28.76
2022-08-28T10:59:42.156Z,28.35
2022-08-28T11:02:28.456Z,29.09
2022-08-28T11:04:58.660Z,29.45
2022-08-28T11:07:38.925Z,28.34
2022-08-28T11:10:37.685Z,27.32
2022-08-28T11:13:09.429Z,26.52
2022-08-28T11:15:42.622Z,27.42
2022-08-28T11:18:16.613Z,27.38
2022-08-28T11:21:06.030Z,25.69
2022-08-28T11:23:43.884Z,25.60
2022-08-28T11:26:14.789Z,25.17
2022-08-28T11:28:47.634Z,24.45
2022-08-28T11:31:19.155Z,25.86
2022-08-28T11:34:00.254Z,26.30
2022-08-28T11:36:30.081Z,25.50
2022-08-28T11:38:58.427Z,25.26
2022-08-28T11:41:33.196Z,25.43
2022-08-28T11:44:09.890Z,25.32
2022-08-28T11:46:51.947Z,24.79
2022-08-28T11:49:31.817Z,26.04
2022-08-28T11:52:20.934Z,26.06
2022-08-28T11:55:20.857Z,26.07
2022-08-28T11:58:32.977Z,26.89
2022-08-28T12:01:07.265Z,27.97
2022-08-28T12:03:45.004Z,29.11
2022-08-28T12:06:13.531Z,30.22
2022-08-28T12:08:53.320Z,31.20
2022-08-28T12:11:39.271Z,31.66
2022-08-28T12:14:28.033Z,31.91
2022-08-28T12:16:58.656Z,31.50
2022-08-28T12:19:55.661Z,31.57
2022-08-28T12:22:39.564Z,29.75
2022-08-28T12:25:21.004Z,29.22
2022-08-28T12:27:49.673Z,27.68
2022-08-28T12:30:30.955Z,27.24
2022-08-28T12:33:24.948Z,26.52
2022-08-28T12:35:52.948Z,25.68
2022-08-28T12:38:22.645Z,25.83
2022-08-28T12:40:53.071Z,26.98
2022-08-28T12:43:27.663Z,27.93
2022-08-28T12:46:01.866Z,28.89
2022-08-28T12:48:47.604Z,29.51
2022-08-28T12:51:21.277Z,30.01
2022-08-28T12:53:52.497Z,30.29
2022-08-28T12:56:22.464Z,30.00
2022-08-28T12:58:51.031Z,30.69
2022-08-28T13:01:21.924Z,30.93
2022-08-28T13:04:03.342Z,29.47
2022-08-28T13:06:36.295Z,28.25
2022-08-28T13:09:15.786Z,26.50
2022-08-28T13:11:49.426Z,25.01
2022-08-28T13:14:44.176Z,23.28
2022-08-28T13:17:14.480Z,22.90
2022-08-28T13:19:42.783Z,21.54
2022-08-28T13:22:34.468Z,20.85
2022-08-28T13:25:03.852Z,20.52
2022-08-28T13:27:31.962Z,20.88
2022-08-28T13:30:06.559Z,21.13
2022-08-28T13:32:39.255Z,21.69
2022-08-28T13:35:33.240Z,21.81
2022-08-28T13:38:04.044Z,22.48
2022-08-28T13:40:58.356Z,22.49
2022-08-28T13:43:30.598Z,22.15
2022-08-28T13:45:58.616Z,22.22
2022-08-28T13:48:30.633Z,22.18
2022-08-28T13:51:05.133Z,22.97
2022-08-28T13:53:38.704Z,23.64
2022-08-28T13:56:06.962Z,23.47
2022-08-28T13:58:34.879Z,22.05
2022-08-28T14:01:03.228Z,21.03
2022-08-28T14:03:38.672Z,21.33
2022-08-28T14:06:14.560Z,21.41
2022-08-28T14:08:44.635Z,21.77
2022-08-28T14:11:15.434Z,21.99
2022-08-28T14:13:47.265Z,22.06
2022-08-28T14:16:26.140Z,21.54
2022-08-28T14:18:54.657Z,21.58
2022-08-28T14:21:25.183Z,21.42
2022-08-28T14:23:53.098Z,21.21
2022-08-28T14:26:21.495Z,21.07
2022-08-28T14:28:49.431Z,20.78
2022-08-28T14:31:17.558Z,20.98
2022-08-28T14:33:45.782Z,21.34
2022-08-28T14:36:26.831Z,22.27
2022-08-28T14:38:57.831Z,22.67
2022-08-28T14:41:27.466Z,23.99
2022-08-28T14:43:56.775Z,25.00
2022-08-28T14:46:28.713Z,25.71
2022-08-28T14:48:59.019Z,26.33
2022-08-28T14:51:28.065Z,26.82
2022-08-28T14:53:55.934Z,27.53
2022-08-28T14:56:23.933Z,28.10
2022-08-28T14:58:52.235Z,28.83
2022-08-28T15:01:30.721Z,31.29
2022-08-28T15:04:13.502Z,34.16
2022-08-28T15:06:45.194Z,35.73
2022-08-28T15:09:14.307Z,35.99
2022-08-28T15:11:43.958Z,36.31
2022-08-28T15:14:12.789Z,37.23
2022-08-28T15:16:54.536Z,38.12
2022-08-28T15:19:24.151Z,38.56
2022-08-28T15:21:55.508Z,39.50
2022-08-28T15:24:28.765Z,39.86
2022-08-28T15:26:57.870Z,39.84
2022-08-28T15:29:28.149Z,40.35
2022-08-28T15:31:57.317Z,40.53
2022-08-28T15:34:28.467Z,39.59
2022-08-28T15:36:58.048Z,40.23
2022-08-28T15:39:46.907Z,40.68
2022-08-28T15:42:15.629Z,40.74
2022-08-28T15:44:44.515Z,41.49
2022-08-28T15:47:14.198Z,41.43
2022-08-28T15:49:48.771Z,40.54
2022-08-28T15:52:21.059Z,40.46
2022-08-28T15:54:49.817Z,40.81
2022-08-28T15:57:18.459Z,41.62
2022-08-28T15:59:49.499Z,41.81
2022-08-28T16:02:22.679Z,41.22
2022-08-28T16:04:51.533Z,40.86
2022-08-28T16:07:21.352Z,39.98
2022-08-28T16:09:49.740Z,39.73
2022-08-28T16:12:18.524Z,39.21
2022-08-28T16:14:46.535Z,38.15
2022-08-28T16:17:14.618Z,37.64
2022-08-28T16:19:43.409Z,37.23
2022-08-28T16:22:16.073Z,37.66
2022-08-28T16:24:45.053Z,39.32
2022-08-28T16:27:15.750Z,40.22
2022-08-28T16:29:45.408Z,40.60
2022-08-28T16:32:13.898Z,42.35
2022-08-28T16:34:44.607Z,43.39
2022-08-28T16:37:15.827Z,44.47
2022-08-28T16:39:53.590Z,47.49
2022-08-28T16:42:23.477Z,48.41
2022-08-28T16:44:56.414Z,48.57
2022-08-28T16:47:24.394Z,49.14
2022-08-28T16:50:01.254Z,49.85
2022-08-28T16:52:29.718Z,51.01
2022-08-28T16:54:59.837Z,51.69
2022-08-28T16:57:28.244Z,51.35
2022-08-28T16:59:56.210Z,51.11
2022-08-28T17:02:26.683Z,51.69
2022-08-28T17:04:58.515Z,51.87
2022-08-28T17:07:26.705Z,52.29
2022-08-28T17:09:54.695Z,52.69
2022-08-28T17:12:23.115Z,53.28
2022-08-28T17:14:51.025Z,53.64
2022-08-28T17:17:19.005Z,53.92
2022-08-28T17:19:46.975Z,53.96
2022-08-28T17:22:33.355Z,53.69
2022-08-28T17:25:04.538Z,53.59
2022-08-28T17:27:32.451Z,53.91
2022-08-28T17:30:01.797Z,54.21
2022-08-28T17:32:29.815Z,54.10
2022-08-28T17:34:58.247Z,54.09
2022-08-28T17:37:26.560Z,53.41
2022-08-28T17:39:54.691Z,54.11
2022-08-28T17:42:23.039Z,53.83
2022-08-28T17:44:51.210Z,53.82
2022-08-28T17:47:26.216Z,53.67
2022-08-28T17:50:02.940Z,54.00
2022-08-28T17:52:31.127Z,55.82
2022-08-28T17:54:59.114Z,55.92
2022-08-28T17:57:30.778Z,55.46
2022-08-28T18:00:01.084Z,54.84
2022-08-28T18:02:29.482Z,54.75
2022-08-28T18:04:57.689Z,54.89
2022-08-28T18:07:25.896Z,55.58
2022-08-28T18:09:53.819Z,56.43
2022-08-28T18:12:21.722Z,57.00
2022-08-28T18:14:49.700Z,57.57
2022-08-28T18:17:17.599Z,58.48
2022-08-28T18:19:45.624Z,58.92
2022-08-28T18:22:15.037Z,59.63
2022-08-28T18:24:44.236Z,60.18
2022-08-28T18:27:12.248Z,60.79
2022-08-28T18:29:40.189Z,61.16
2022-08-28T18:32:08.302Z,61.61
2022-08-28T18:34:37.011Z,61.84
2022-08-28T18:37:05.108Z,61.92
2022-08-28T18:39:35.976Z,61.80
2022-08-28T18:42:04.188Z,61.91
2022-08-28T18:44:32.496Z,62.29
2022-08-28T18:47:00.580Z,62.15
2022-08-28T18:49:28.721Z,62.45
2022-08-28T18:51:56.798Z,62.21
2022-08-28T18:54:24.794Z,62.44
2022-08-28T18:56:59.608Z,62.89
2022-08-28T18:59:33.464Z,63.09
2022-08-28T19:02:03.716Z,63.21
2022-08-28T19:04:32.357Z,63.29
2022-08-28T19:07:00.292Z,63.38
2022-08-28T19:09:32.272Z,63.45
2022-08-28T19:12:01.531Z,63.53
2022-08-28T19:14:29.480Z,63.40
2022-08-28T19:16:57.615Z,63.06
2022-08-28T19:19:25.562Z,62.93
2022-08-28T19:21:54.975Z,62.73
2022-08-28T19:24:23.115Z,62.94
2022-08-28T19:26:51.072Z,62.83
2022-08-28T19:29:19.295Z,62.94
2022-08-28T19:31:47.192Z,62.49
2022-08-28T19:34:15.406Z,62.58
2022-08-28T19:36:43.534Z,62.53
2022-08-28T19:39:12.545Z,62.44
2022-08-28T19:41:40.755Z,62.32
2022-08-28T19:44:08.731Z,61.78
2022-08-28T19:46:38.825Z,61.70
2022-08-28T19:49:07.634Z,61.83
2022-08-28T19:51:38.976Z,61.81
2022-08-28T19:54:11.487Z,61.78
2022-08-28T19:56:40.174Z,61.76
2022-08-28T19:59:09.280Z,61.78
2022-08-28T20:01:41.266Z,61.95
2022-08-28T20:04:13.645Z,61.98
2022-08-28T20:06:41.660Z,62.26
2022-08-28T20:09:12.835Z,62.39
2022-08-28T20:11:44.410Z,62.46
2022-08-28T20:14:13.880Z,62.54
2022-08-28T20:16:43.905Z,62.45
2022-08-28T20:19:12.872Z,62.51
2022-08-28T20:21:44.452Z,62.82
2022-08-28T20:24:15.508Z,62.71
2022-08-28T20:26:44.734Z,63.04
2022-08-28T20:29:13.876Z,63.37
2022-08-28T20:31:45.735Z,63.49
2022-08-28T20:34:16.379Z,63.52
2022-08-28T20:36:44.873Z,63.59
2022-08-28T20:39:12.975Z,63.45
2022-08-28T20:41:42.295Z,63.57
2022-08-28T20:44:13.134Z,63.68
2022-08-28T20:46:42.188Z,63.73
2022-08-28T20:49:13.050Z,63.84
2022-08-28T20:52:01.266Z,63.98
2022-08-28T20:54:38.273Z,64.17
2022-08-28T20:57:09.845Z,64.09
2022-08-28T20:59:40.705Z,64.21
2022-08-28T21:02:16.818Z,64.26
2022-08-28T21:04:46.518Z,63.95
2022-08-28T21:07:16.518Z,64.05
2022-08-28T21:10:05.029Z,64.49
2022-08-28T21:12:32.672Z,64.37
2022-08-28T21:15:00.906Z,64.45
2022-08-28T21:17:30.673Z,64.93
2022-08-28T21:20:04.779Z,65.36
2022-08-28T21:22:35.182Z,65.72
2022-08-28T21:25:07.424Z,65.81
2022-08-28T21:27:35.831Z,66.02
2022-08-28T21:30:05.775Z,66.04
2022-08-28T21:32:34.718Z,66.49
2022-08-28T21:35:04.420Z,66.65
2022-08-28T21:37:32.883Z,66.53
2022-08-28T21:40:01.234Z,66.64
2022-08-28T21:42:29.355Z,66.66
2022-08-28T21:44:57.301Z,66.46
2022-08-28T21:47:25.584Z,66.72
2022-08-28T21:49:57.092Z,66.65
2022-08-28T21:52:28.621Z,66.44
2022-08-28T21:54:58.938Z,66.32
2022-08-28T21:57:28.398Z,66.22
2022-08-28T21:59:56.651Z,65.81
2022-08-28T22:02:25.336Z,66.10
2022-08-28T22:04:53.902Z,66.29
2022-08-28T22:07:22.113Z,66.28
2022-08-28T22:09:50.931Z,66.50
2022-08-28T22:12:19.092Z,66.52
2022-08-28T22:14:47.206Z,66.39
2022-08-28T22:17:15.834Z,66.30
2022-08-28T22:19:46.816Z,66.31
2022-08-28T22:22:34.381Z,66.41
2022-08-28T22:25:02.435Z,66.65
2022-08-28T22:27:32.132Z,66.69
2022-08-28T22:30:00.324Z,66.86
2022-08-28T22:32:28.378Z,67.58
2022-08-28T22:34:56.320Z,67.90
2022-08-28T22:37:26.056Z,68.20
2022-08-28T22:39:54.386Z,68.60
2022-08-28T22:42:23.243Z,68.63
2022-08-28T22:44:51.279Z,68.83
2022-08-28T22:47:19.351Z,69.06
2022-08-28T22:49:47.513Z,69.75
2022-08-28T22:52:16.644Z,70.85
2022-08-28T22:54:47.218Z,72.13
2022-08-28T22:57:21.929Z,72.72
2022-08-28T22:59:50.597Z,73.41
2022-08-28T23:02:21.758Z,73.87
2022-08-28T23:04:55.330Z,74.51
2022-08-28T23:07:23.204Z,74.79
2022-08-28T23:09:51.169Z,75.58
2022-08-28T23:12:19.550Z,76.74
2022-08-28T23:14:48.764Z,77.46
2022-08-28T23:17:18.704Z,78.91
2022-08-28T23:19:48.428Z,79.45
2022-08-28T23:22:17.780Z,79.73
2022-08-28T23:24:47.031Z,80.54
2022-08-28T23:27:35.459Z,81.79
2022-08-28T23:30:06.167Z,83.34
2022-08-28T23:32:34.279Z,84.13
2022-08-28T23:35:02.222Z,84.73
2022-08-28T23:37:37.730Z,85.65
2022-08-28T23:40:14.190Z,86.01
2022-08-28T23:42:42.244Z,86.23
2022-08-28T23:45:12.142Z,86.19
2022-08-28T23:47:40.769Z,86.47
2022-08-28T23:50:13.529Z,86.90
2022-08-28T23:52:43.205Z,86.89
2022-08-28T23:55:14.679Z,87.05
2022-08-28T23:57:43.448Z,87.52
